createdAt,value
2022-10-23T00:01:17.524Z,16.57
2022-10-23T00:03:44.719Z,16.63
2022-10-23T00:06:12.074Z,16.64
2022-10-23T00:08:39.399Z,16.64
2022-10-23T00:11:10.267Z,16.63
2022-10-23T00:13:37.412Z,16.60
2022-10-23T00:16:04.836Z,16.57
2022-10-23T00:18:31.303Z,16.55
2022-10-23T00:20:57.684Z,16.52
2022-10-23T00:23:24.571Z,16.48
2022-10-23T00:25:51.170Z,16.45
2022-10-23T00:28:18.163Z,16.41
2022-10-23T00:30:44.581Z,16.40
2022-10-23T00:33:11.113Z,16.38
2022-10-23T00:35:41.555Z,16.35
2022-10-23T00:38:09.458Z,16.36
2022-10-23T00:40:36.624Z,16.34
2022-10-23T00:43:03.848Z,16.31
2022-10-23T00:45:33.480Z,16.27
2022-10-23T00:48:01.668Z,16.24
2022-10-23T00:50:31.078Z,16.23
2022-10-23T00:53:00.702Z,16.21
2022-10-23T00:55:28.236Z,16.19
2022-10-23T00:57:54.826Z,16.18
2022-10-23T01:00:25.052Z,16.13
2022-10-23T01:02:51.926Z,16.12
2022-10-23T01:05:22.527Z,16.12
2022-10-23T01:08:01.856Z,16.10
2022-10-23T01:10:47.550Z,16.08
2022-10-23T01:13:29.236Z,16.06
2022-10-23T01:16:09.933Z,16.06
2022-10-23T01:18:43.732Z,16.05
2022-10-23T01:21:18.500Z,16.04
2022-10-23T01:24:09.969Z,16.00
2022-10-23T01:26:50.515Z,16.00
2022-10-23T01:29:33.985Z,15.96
2022-10-23T01:32:19.784Z,15.94
2022-10-23T01:34:57.139Z,15.93
2022-10-23T01:37:34.271Z,15.91
2022-10-23T01:40:09.340Z,15.88
2022-10-23T01:42:41.513Z,15.88
2022-10-23T01:45:17.791Z,15.87
2022-10-23T01:47:45.420Z,15.88
2022-10-23T01:50:15.337Z,15.88
2022-10-23T01:52:44.767Z,15.87
2022-10-23T01:55:13.456Z,15.86
2022-10-23T01:57:41.562Z,15.86
2022-10-23T02:00:12.374Z,15.86
2022-10-23T02:02:52.630Z,15.84
2022-10-23T02:05:25.014Z,15.82
2022-10-23T02:07:52.671Z,15.81
2022-10-23T02:10:20.394Z,15.81
2022-10-23T02:12:57.865Z,15.81
2022-10-23T02:15:29.672Z,15.83
2022-10-23T02:18:13.723Z,15.79
2022-10-23T02:20:48.013Z,15.75
2022-10-23T02:23:35.725Z,15.71
2022-10-23T02:26:11.956Z,15.75
2022-10-23T02:28:48.560Z,15.75
2022-10-23T02:31:19.632Z,15.74
2022-10-23T02:33:48.142Z,15.73
2022-10-23T02:36:15.584Z,15.65
2022-10-23T02:38:44.890Z,15.61
2022-10-23T02:41:33.316Z,15.60
2022-10-23T02:44:47.632Z,15.63
2022-10-23T02:47:24.710Z,15.69
2022-10-23T02:50:14.520Z,15.68
2022-10-23T02:53:11.165Z,15.70
2022-10-23T02:56:02.187Z,15.74
2022-10-23T02:58:43.243Z,15.74
2022-10-23T03:01:20.825Z,15.75
2022-10-23T03:03:53.592Z,15.74
2022-10-23T03:06:20.836Z,15.74
2022-10-23T03:09:00.014Z,15.71
2022-10-23T03:11:26.610Z,15.73
2022-10-23T03:13:54.563Z,15.72
2022-10-23T03:16:21.195Z,15.71
2022-10-23T03:18:52.160Z,15.70
2022-10-23T03:21:18.556Z,15.69
2022-10-23T03:23:48.922Z,15.68
2022-10-23T03:26:18.816Z,15.68
2022-10-23T03:28:45.468Z,15.65
2022-10-23T03:31:11.960Z,15.63
2022-10-23T03:33:39.167Z,15.60
2022-10-23T03:36:09.094Z,15.59
2022-10-23T03:38:35.726Z,15.57
2022-10-23T03:41:03.787Z,15.56
2022-10-23T03:43:30.214Z,15.55
2022-10-23T03:45:57.159Z,15.54
2022-10-23T03:48:25.528Z,15.54
2022-10-23T03:50:56.809Z,15.52
2022-10-23T03:53:23.224Z,15.51
2022-10-23T03:55:49.611Z,15.51
2022-10-23T03:58:17.220Z,15.51
2022-10-23T04:03:15.206Z,15.46
2022-10-23T04:05:42.423Z,15.43
2022-10-23T04:08:09.963Z,15.42
2022-10-23T04:10:36.932Z,15.43
2022-10-23T04:13:03.508Z,15.42
2022-10-23T04:15:34.730Z,15.41
2022-10-23T04:18:01.794Z,15.39
2022-10-23T04:20:30.230Z,15.36
2022-10-23T04:23:00.811Z,15.36
2022-10-23T04:25:27.348Z,15.33
2022-10-23T04:27:53.782Z,15.29
2022-10-23T04:30:20.383Z,15.24
2022-10-23T04:32:50.423Z,15.23
2022-10-23T04:35:17.140Z,15.26
2022-10-23T04:37:45.063Z,15.26
2022-10-23T04:40:12.343Z,15.27
2022-10-23T04:42:38.701Z,15.27
2022-10-23T04:45:05.901Z,15.28
2022-10-23T04:47:32.838Z,15.28
2022-10-23T04:49:59.780Z,15.29
2022-10-23T04:52:56.490Z,15.29
2022-10-23T04:55:50.702Z,15.25
2022-10-23T04:58:35.163Z,15.17
2022-10-23T05:01:03.432Z,15.11
2022-10-23T05:03:30.080Z,15.09
2022-10-23T05:05:57.007Z,15.08
2022-10-23T05:08:41.168Z,15.06
2022-10-23T05:11:26.284Z,15.02
2022-10-23T05:13:52.670Z,14.97
2022-10-23T05:16:50.212Z,14.93
2022-10-23T05:19:27.850Z,14.93
2022-10-23T05:21:55.949Z,14.95
2022-10-23T05:24:26.368Z,14.94
2022-10-23T05:26:59.327Z,14.92
2022-10-23T05:29:25.688Z,14.90
2022-10-23T05:31:58.709Z,14.84
2022-10-23T05:34:31.269Z,14.84
2022-10-23T05:37:00.571Z,14.83
2022-10-23T05:39:29.974Z,14.84
2022-10-23T05:41:58.453Z,14.86
2022-10-23T05:44:25.194Z,14.86
2022-10-23T05:47:00.081Z,14.88
2022-10-23T05:49:52.328Z,14.86
2022-10-23T05:52:46.524Z,14.80
2022-10-23T05:55:31.378Z,14.78
2022-10-23T05:58:15.751Z,14.77
2022-10-23T06:01:20.507Z,14.78
2022-10-23T06:04:04.265Z,14.79
2022-10-23T06:07:04.079Z,14.74
2022-10-23T06:09:30.804Z,14.70
2022-10-23T06:11:58.204Z,14.68
2022-10-23T06:14:24.807Z,14.67
2022-10-23T06:16:51.940Z,14.67
2022-10-23T06:19:19.101Z,14.71
2022-10-23T06:21:47.128Z,14.75
2022-10-23T06:24:15.060Z,14.78
2022-10-23T06:26:48.599Z,14.79
2022-10-23T06:29:29.886Z,14.82
2022-10-23T06:31:56.511Z,14.82
2022-10-23T06:34:23.148Z,14.85
2022-10-23T06:36:49.723Z,14.85
2022-10-23T06:39:32.009Z,14.87
2022-10-23T06:42:08.134Z,14.89
2022-10-23T06:44:53.778Z,14.91
2022-10-23T06:47:38.655Z,14.92
2022-10-23T06:50:33.832Z,14.93
2022-10-23T06:53:06.829Z,14.92
2022-10-23T06:58:10.884Z,14.95
2022-10-23T07:00:48.919Z,14.98
2022-10-23T07:03:16.191Z,15.00
2022-10-23T07:05:44.764Z,15.02
2022-10-23T07:08:12.221Z,15.05
2022-10-23T07:10:42.863Z,15.08
2022-10-23T07:13:10.802Z,15.11
2022-10-23T07:15:40.687Z,15.15
2022-10-23T07:18:15.369Z,15.21
2022-10-23T07:21:11.145Z,15.26
2022-10-23T07:23:39.453Z,15.29
2022-10-23T07:26:14.314Z,15.29
2022-10-23T07:28:42.675Z,15.34
2022-10-23T07:31:09.707Z,15.38
2022-10-23T07:33:59.525Z,15.44
2022-10-23T07:36:25.979Z,15.46
2022-10-23T07:38:52.383Z,15.48
2022-10-23T07:41:20.264Z,15.51
2022-10-23T07:43:46.768Z,15.49
2022-10-23T07:46:13.756Z,15.46
2022-10-23T07:48:40.259Z,15.45
2022-10-23T07:51:11.781Z,15.48
2022-10-23T07:53:47.584Z,15.65
2022-10-23T07:56:32.640Z,15.73
2022-10-23T07:59:13.736Z,15.78
2022-10-23T08:01:43.264Z,15.80
2022-10-23T08:04:10.835Z,15.87
2022-10-23T08:06:44.974Z,16.01
2022-10-23T08:09:11.868Z,16.05
2022-10-23T08:11:40.846Z,16.16
2022-10-23T08:14:09.334Z,16.23
2022-10-23T08:16:38.227Z,16.37
2022-10-23T08:19:16.491Z,16.52
2022-10-23T08:21:44.667Z,16.60
2022-10-23T08:24:15.459Z,16.72
2022-10-23T08:26:45.257Z,16.81
2022-10-23T08:29:13.028Z,16.84
2022-10-23T08:31:40.367Z,17.02
2022-10-23T08:34:15.299Z,17.20
2022-10-23T08:36:43.394Z,17.35
2022-10-23T08:39:10.935Z,17.46
2022-10-23T08:41:42.885Z,17.61
2022-10-23T08:44:22.781Z,17.73
2022-10-23T08:46:59.210Z,17.78
2022-10-23T08:50:06.186Z,17.91
2022-10-23T08:52:52.121Z,18.04
2022-10-23T08:55:30.930Z,18.18
2022-10-23T08:58:15.244Z,17.91
2022-10-23T09:00:42.529Z,18.22
2022-10-23T09:03:11.755Z,18.32
2022-10-23T09:05:56.921Z,18.32
2022-10-23T09:08:33.966Z,18.40
2022-10-23T09:11:44.244Z,18.45
2022-10-23T09:14:29.719Z,18.55
2022-10-23T09:17:19.913Z,18.59
2022-10-23T09:19:46.553Z,18.69
2022-10-23T09:22:13.563Z,18.74
2022-10-23T09:24:43.163Z,18.78
2022-10-23T09:27:16.726Z,18.84
2022-10-23T09:29:49.797Z,18.88
2022-10-23T09:32:16.322Z,18.92
2022-10-23T09:34:53.227Z,18.88
2022-10-23T09:37:29.161Z,18.91
2022-10-23T09:40:30.348Z,19.01
2022-10-23T09:43:06.683Z,19.08
2022-10-23T09:45:35.165Z,19.19
2022-10-23T09:48:16.866Z,19.27
2022-10-23T09:50:49.369Z,19.36
2022-10-23T09:53:41.512Z,19.48
2022-10-23T09:56:25.861Z,19.59
2022-10-23T09:59:12.519Z,19.64
2022-10-23T10:02:00.259Z,19.72
2022-10-23T10:04:41.221Z,19.86
2022-10-23T10:07:36.644Z,19.93
2022-10-23T10:10:13.625Z,20.02
2022-10-23T10:12:50.804Z,20.01
2022-10-23T10:15:32.189Z,20.19
2022-10-23T10:18:32.697Z,20.34
2022-10-23T10:21:37.603Z,20.74
2022-10-23T10:24:17.831Z,21.18
2022-10-23T10:27:08.813Z,21.29
2022-10-23T10:29:40.854Z,21.32
2022-10-23T10:32:40.703Z,21.11
2022-10-23T10:35:22.230Z,20.99
2022-10-23T10:38:09.336Z,20.93
2022-10-23T10:40:41.327Z,20.93
2022-10-23T10:43:23.386Z,20.87
2022-10-23T10:46:00.769Z,20.74
2022-10-23T10:48:57.001Z,20.95
2022-10-23T10:52:03.392Z,21.27
2022-10-23T10:54:43.647Z,21.54
2022-10-23T10:57:34.980Z,21.91
2022-10-23T11:00:12.958Z,22.65
2022-10-23T11:02:53.002Z,23.34
2022-10-23T11:05:29.187Z,23.86
2022-10-23T11:08:00.993Z,24.37
2022-10-23T11:10:28.895Z,24.46
2022-10-23T11:12:55.757Z,24.49
2022-10-23T11:15:28.205Z,24.50
2022-10-23T11:17:59.768Z,24.45
2022-10-23T11:20:32.161Z,24.36
2022-10-23T11:23:36.139Z,24.32
2022-10-23T11:26:19.691Z,24.51
2022-10-23T11:29:18.913Z,24.80
2022-10-23T11:31:54.912Z,25.23
2022-10-23T11:34:39.782Z,25.59
2022-10-23T11:37:08.929Z,25.86
2022-10-23T11:39:39.828Z,25.99
2022-10-23T11:42:09.987Z,26.28
2022-10-23T11:44:36.282Z,26.46
2022-10-23T11:47:06.676Z,26.52
2022-10-23T11:49:33.122Z,26.36
2022-10-23T11:52:05.262Z,26.13
2022-10-23T11:54:32.163Z,26.07
2022-10-23T11:57:10.399Z,26.44
2022-10-23T11:59:51.466Z,26.71
2022-10-23T12:02:34.227Z,26.71
2022-10-23T12:05:07.294Z,26.67
2022-10-23T12:07:37.277Z,26.73
2022-10-23T12:10:17.465Z,27.17
2022-10-23T12:12:55.655Z,27.85
2022-10-23T12:15:23.212Z,27.98
2022-10-23T12:17:52.057Z,28.08
2022-10-23T12:20:35.227Z,28.53
2022-10-23T12:23:30.532Z,29.04
2022-10-23T12:26:26.484Z,29.64
2022-10-23T12:29:01.700Z,30.48
2022-10-23T12:32:08.819Z,30.89
2022-10-23T12:35:09.556Z,30.99
2022-10-23T12:37:58.010Z,29.92
2022-10-23T12:40:29.968Z,29.04
2022-10-23T12:42:59.605Z,28.35
2022-10-23T12:45:38.496Z,27.55
2022-10-23T12:48:05.320Z,26.83
2022-10-23T12:50:33.723Z,26.17
2022-10-23T12:53:03.132Z,25.65
2022-10-23T12:55:46.605Z,25.08
2022-10-23T12:58:21.339Z,24.49
2022-10-23T13:00:56.033Z,24.05
2022-10-23T13:03:24.791Z,23.75
2022-10-23T13:05:53.428Z,23.46
2022-10-23T13:08:21.787Z,23.18
2022-10-23T13:11:13.635Z,22.94
2022-10-23T13:13:41.593Z,22.77
2022-10-23T13:16:25.966Z,22.55
2022-10-23T13:18:54.257Z,22.39
2022-10-23T13:21:27.083Z,22.18
2022-10-23T13:23:54.249Z,22.05
2022-10-23T13:26:34.677Z,21.90
2022-10-23T13:29:07.460Z,21.74
2022-10-23T13:31:36.613Z,21.62
2022-10-23T13:34:14.223Z,21.50
2022-10-23T13:36:53.456Z,21.45
2022-10-23T13:39:29.776Z,21.51
2022-10-23T13:41:59.951Z,21.58
2022-10-23T13:44:26.693Z,21.61
2022-10-23T13:46:53.181Z,21.61
2022-10-23T13:49:20.286Z,21.62
2022-10-23T13:51:56.180Z,21.56
2022-10-23T13:54:25.291Z,21.55
2022-10-23T13:56:53.257Z,21.50
2022-10-23T13:59:20.265Z,21.44
2022-10-23T14:01:48.795Z,21.39
2022-10-23T14:04:17.867Z,21.37
2022-10-23T14:06:44.849Z,21.28
2022-10-23T14:09:14.055Z,21.17
2022-10-23T14:11:40.787Z,21.00
2022-10-23T14:14:07.652Z,20.90
2022-10-23T14:16:34.102Z,20.81
2022-10-23T14:19:00.522Z,20.73
2022-10-23T14:21:27.800Z,20.66
2022-10-23T14:23:54.342Z,20.58
2022-10-23T14:26:27.525Z,20.47
2022-10-23T14:28:56.898Z,20.40
2022-10-23T14:31:25.262Z,20.35
2022-10-23T14:33:54.561Z,20.31
2022-10-23T14:36:21.073Z,20.29
2022-10-23T14:38:48.459Z,20.23
2022-10-23T14:41:18.454Z,20.16
2022-10-23T14:43:44.917Z,20.07
2022-10-23T14:46:12.305Z,20.01
2022-10-23T14:48:38.842Z,19.98
2022-10-23T14:51:07.968Z,19.96
2022-10-23T14:53:34.507Z,19.99
2022-10-23T14:56:03.162Z,19.97
2022-10-23T14:58:30.030Z,19.93
2022-10-23T15:01:00.818Z,19.85
2022-10-23T15:03:28.735Z,19.85
2022-10-23T15:05:55.577Z,19.80
2022-10-23T15:08:23.471Z,19.69
2022-10-23T15:10:50.180Z,19.67
2022-10-23T15:13:16.835Z,19.64
2022-10-23T15:15:43.778Z,19.62
2022-10-23T15:18:10.200Z,19.54
2022-10-23T15:20:36.839Z,19.46
2022-10-23T15:23:03.691Z,19.47
2022-10-23T15:25:30.246Z,19.49
2022-10-23T15:27:56.760Z,19.49
2022-10-23T15:30:23.288Z,19.47
2022-10-23T15:32:49.840Z,19.43
2022-10-23T15:35:16.303Z,19.40
2022-10-23T15:37:43.068Z,19.38
2022-10-23T15:40:10.164Z,19.33
2022-10-23T15:42:36.723Z,19.29
2022-10-23T15:45:03.111Z,19.24
2022-10-23T15:47:29.561Z,19.22
2022-10-23T15:49:56.006Z,19.18
2022-10-23T15:52:22.528Z,19.16
2022-10-23T15:54:49.022Z,19.14
2022-10-23T15:57:15.511Z,19.11
2022-10-23T15:59:41.939Z,19.07
2022-10-23T16:02:11.268Z,19.07
2022-10-23T16:04:37.804Z,19.06
2022-10-23T16:07:04.205Z,19.04
2022-10-23T16:09:30.920Z,19.02
2022-10-23T16:11:57.255Z,19.03
2022-10-23T16:14:24.068Z,19.00
2022-10-23T16:16:50.566Z,18.99
2022-10-23T16:19:17.076Z,18.97
2022-10-23T16:21:43.636Z,18.96
2022-10-23T16:24:10.609Z,18.94
2022-10-23T16:26:37.966Z,18.91
2022-10-23T16:29:06.925Z,18.91
2022-10-23T16:31:33.797Z,18.91
2022-10-23T16:34:01.463Z,18.90
2022-10-23T16:36:28.766Z,18.90
2022-10-23T16:39:16.129Z,18.89
2022-10-23T16:42:01.238Z,18.87
2022-10-23T16:44:56.749Z,18.87
2022-10-23T16:47:23.157Z,18.86
2022-10-23T16:49:49.573Z,18.82
2022-10-23T16:52:15.996Z,18.77
2022-10-23T16:54:43.770Z,18.80
2022-10-23T16:57:10.345Z,18.81
2022-10-23T16:59:36.972Z,18.78
2022-10-23T17:02:03.738Z,18.81
2022-10-23T17:04:30.167Z,18.83
2022-10-23T17:06:56.680Z,18.82
2022-10-23T17:09:23.583Z,18.82
2022-10-23T17:11:52.926Z,18.80
2022-10-23T17:14:20.980Z,18.79
2022-10-23T17:16:50.027Z,18.77
2022-10-23T17:19:40.198Z,18.76
2022-10-23T17:22:11.100Z,18.75
2022-10-23T17:24:39.580Z,18.73
2022-10-23T17:27:06.364Z,18.70
2022-10-23T17:29:32.789Z,18.69
2022-10-23T17:31:59.395Z,18.66
2022-10-23T17:34:26.123Z,18.64
2022-10-23T17:36:54.899Z,18.61
2022-10-23T17:39:26.506Z,18.60
2022-10-23T17:41:53.388Z,18.59
2022-10-23T17:44:19.966Z,18.58
2022-10-23T17:46:46.409Z,18.57
2022-10-23T17:49:13.253Z,18.56
2022-10-23T17:51:39.768Z,18.55
2022-10-23T17:54:10.657Z,18.55
2022-10-23T17:56:38.320Z,18.53
2022-10-23T17:59:07.882Z,18.51
2022-10-23T18:01:34.923Z,18.51
2022-10-23T18:04:03.918Z,18.51
2022-10-23T18:06:33.850Z,18.50
2022-10-23T18:09:01.658Z,18.51
2022-10-23T18:11:31.262Z,18.49
2022-10-23T18:16:27.296Z,18.48
2022-10-23T18:18:55.012Z,18.48
2022-10-23T18:21:24.146Z,18.43
2022-10-23T18:23:51.364Z,18.39
2022-10-23T18:26:24.044Z,18.37
2022-10-23T18:28:52.791Z,18.42
2022-10-23T18:31:20.211Z,18.43
2022-10-23T18:33:47.251Z,18.44
2022-10-23T18:36:19.902Z,18.42
2022-10-23T18:38:47.102Z,18.44
2022-10-23T18:41:13.912Z,18.44
2022-10-23T18:43:44.525Z,18.42
2022-10-23T18:46:12.989Z,18.40
2022-10-23T18:48:40.071Z,18.41
2022-10-23T18:51:20.122Z,18.36
2022-10-23T18:53:50.607Z,18.38
2022-10-23T18:56:22.522Z,18.31
2022-10-23T18:58:57.570Z,18.27
2022-10-23T19:01:27.071Z,18.30
2022-10-23T19:06:28.007Z,18.24
2022-10-23T19:08:54.544Z,18.22
2022-10-23T19:11:24.005Z,18.26
2022-10-23T19:13:50.682Z,18.29
2022-10-23T19:16:22.963Z,18.30
2022-10-23T19:18:53.982Z,18.31
2022-10-23T19:21:24.330Z,18.26
2022-10-23T19:23:52.143Z,18.23
2022-10-23T19:26:18.901Z,18.24
2022-10-23T19:28:48.832Z,18.20
2022-10-23T19:31:15.517Z,18.19
2022-10-23T19:33:42.043Z,18.20
2022-10-23T19:36:12.557Z,18.20
2022-10-23T19:38:41.434Z,18.19
2022-10-23T19:41:08.191Z,18.24
2022-10-23T19:43:34.624Z,18.27
2022-10-23T19:46:04.035Z,18.24
2022-10-23T19:48:33.080Z,18.25
2022-10-23T19:50:59.607Z,18.22
2022-10-23T19:53:26.053Z,18.22
2022-10-23T19:56:01.908Z,18.21
2022-10-23T19:58:28.317Z,18.23
2022-10-23T20:00:54.858Z,18.26
2022-10-23T20:03:22.303Z,18.23
2022-10-23T20:05:48.812Z,18.23
2022-10-23T20:08:15.352Z,18.20
2022-10-23T20:10:43.510Z,18.19
2022-10-23T20:13:19.340Z,18.21
2022-10-23T20:15:46.537Z,18.21
2022-10-23T20:18:12.961Z,18.20
2022-10-23T20:20:41.143Z,18.22
2022-10-23T20:23:07.886Z,18.23
2022-10-23T20:25:34.238Z,18.29
2022-10-23T20:28:00.682Z,18.26
2022-10-23T20:30:27.182Z,18.24
2022-10-23T20:32:53.743Z,18.24
2022-10-23T20:35:20.156Z,18.21
2022-10-23T20:37:46.996Z,18.21
2022-10-23T20:40:13.520Z,18.19
2022-10-23T20:42:40.060Z,18.19
2022-10-23T20:45:06.905Z,18.17
2022-10-23T20:47:33.369Z,18.18
2022-10-23T20:49:59.781Z,18.16
2022-10-23T20:52:29.285Z,18.17
2022-10-23T20:54:55.734Z,18.20
2022-10-23T20:57:22.147Z,18.23
2022-10-23T20:59:48.592Z,18.22
2022-10-23T21:02:15.270Z,18.15
2022-10-23T21:04:41.711Z,17.95
2022-10-23T21:07:10.412Z,17.83
2022-10-23T21:09:38.144Z,17.88
2022-10-23T21:12:06.540Z,17.87
2022-10-23T21:14:33.590Z,17.81
2022-10-23T21:17:00.282Z,17.77
2022-10-23T21:19:26.708Z,17.68
2022-10-23T21:21:53.965Z,17.69
2022-10-23T21:24:20.336Z,17.69
2022-10-23T21:26:46.844Z,17.75
2022-10-23T21:29:18.347Z,17.80
2022-10-23T21:31:45.846Z,17.84
2022-10-23T21:34:12.435Z,17.83
2022-10-23T21:36:48.523Z,17.82
2022-10-23T21:39:25.378Z,17.82
2022-10-23T21:41:51.999Z,17.78
2022-10-23T21:44:18.388Z,17.73
2022-10-23T21:46:45.629Z,17.68
2022-10-23T21:49:11.983Z,17.70
2022-10-23T21:51:39.011Z,17.67
2022-10-23T21:54:07.852Z,17.65
2022-10-23T21:56:39.789Z,17.62
2022-10-23T21:59:12.338Z,17.65
2022-10-23T22:01:44.752Z,17.74
2022-10-23T22:04:17.177Z,17.75
2022-10-23T22:06:44.567Z,17.81
2022-10-23T22:09:16.377Z,17.77
2022-10-23T22:11:43.083Z,17.77
2022-10-23T22:14:09.512Z,17.83
2022-10-23T22:16:36.240Z,17.68
2022-10-23T22:19:03.321Z,17.77
2022-10-23T22:21:30.377Z,17.93
2022-10-23T22:23:58.707Z,17.98
2022-10-23T22:26:28.632Z,18.01
2022-10-23T22:28:58.432Z,18.05
2022-10-23T22:31:28.575Z,18.12
2022-10-23T22:33:56.023Z,18.22
2022-10-23T22:36:23.136Z,18.32
2022-10-23T22:38:49.620Z,18.36
2022-10-23T22:41:16.853Z,18.32
2022-10-23T22:43:43.394Z,18.31
2022-10-23T22:46:18.779Z,18.36
2022-10-23T22:48:45.681Z,18.41
2022-10-23T22:51:14.498Z,18.43
2022-10-23T22:53:41.178Z,18.42
2022-10-23T22:56:09.189Z,18.38
2022-10-23T22:58:36.201Z,18.32
2022-10-23T23:01:08.433Z,18.32
2022-10-23T23:03:36.337Z,18.30
2022-10-23T23:06:03.686Z,18.25
2022-10-23T23:08:30.252Z,18.22
2022-10-23T23:10:57.374Z,18.20
2022-10-23T23:13:25.023Z,18.15
2022-10-23T23:15:51.893Z,18.07
2022-10-23T23:18:18.565Z,17.83
2022-10-23T23:20:45.196Z,17.66
2022-10-23T23:23:14.010Z,17.63
2022-10-23T23:25:42.687Z,17.57
2022-10-23T23:28:11.604Z,17.51
2022-10-23T23:30:39.675Z,17.46
2022-10-23T23:33:06.579Z,17.30
2022-10-23T23:35:33.018Z,17.22
2022-10-23T23:37:59.439Z,17.18
2022-10-23T23:40:25.974Z,17.13
2022-10-23T23:42:52.331Z,17.15
2022-10-23T23:45:18.752Z,17.12
2022-10-23T23:47:45.339Z,17.18
2022-10-23T23:50:12.423Z,17.16
2022-10-23T23:52:38.808Z,17.17
2022-10-23T23:55:05.502Z,17.16
2022-10-23T23:57:31.978Z,17.12
2022-10-23T23:59:58.484Z,17.19
